Pandora, OH (45877)

6:29 AM EST on December 21, 2014 (GMT -0500)
Bluffton | Change Station
CLOSE
Current Station
Personal Weather Station
Location: Bluffton, OH
Elevation: 847 ft
Nearby Weather Stations

Elev 847 ft 40.89 °N, 83.89 °W | Updated 4 minutes ago

Partly Cloudy
Partly Cloudy
21.4 °F
Feels Like 21 °F
N
1.0
Wind Variable Wind from WSW
Gusts 1.0 mph

Today
High -- | Low -- °F
--% Chance of Precip.
Yesterday
High -- | Low -- °F
Precip. -- in
7:57 AM 5:10 PM
Waning Crescent, 0% visible
Pressure 30.31 in
Visibility 3.0 miles
Clouds Scattered Clouds 1800 ft
Windchill 21 °F
Dew Point 20 °F
Humidity 93%
Rainfall 0.00 in
Snow Depth Not available.
UV 0.0 out of 12
Pollen .10 out of 12
Air Quality Not available.
Flu Activity Not available.
METAR KFDY 211053Z AUTO 00000KT 3SM BR SCT018 M05/M07 A3029 RMK AO2 SLP263 T10501067

More Conditions Fewer Conditions

Pressure 30.31 in
Visibility 3.0 miles
Clouds Scattered Clouds 1800 ft
Windchill 21 °F
Dew Point 20 °F
Humidity 93%
Rainfall 0.00 in
Snow Depth Not available.
UV 0.0 out of 12
Pollen .10 out of 12
Air Quality Not available.
Flu Activity Not available.
METAR KFDY 211053Z AUTO 00000KT 3SM BR SCT018 M05/M07 A3029 RMK AO2 SLP263 T10501067

More Conditions Fewer Conditions

10-Day Weather Forecast

Almanac

Astronomy

Dec. 21, 2014 Rise Set
Actual Time
Civil Twilight
Nautical Twilight
Astronomical Twilight
Moon
Length of Visible Light
Length of Day
Tomorrow will be .
, % of the Moon is Illuminated

Today's Extremes

State Highs State Lows

Community

WunderPhotos

Upload Photos

1,779,368 photos uploaded!

WunderBlogs® & News

Nearby

Air Quality

  Air Quality AQ Index Pollutant
Not available.

Snow Depth

Station Depth Elevation

Earthquake Activity

City Distance Mag. Time & Date
Minimum magnitude displayed is 2.5.

Coastal Water Temperatures

Place Temperature

Nearby Weather Stations